sensor_id;sensor_type;location;lat;lon;timestamp;P1;durP1;ratioP1;P2;durP2;ratioP2
53666;SDS011;39568;51.026;5.468;2023-08-20T00:00:12;34.83;;;20.33;;
53666;SDS011;39568;51.026;5.468;2023-08-20T00:02:41;38.05;;;21.98;;
53666;SDS011;39568;51.026;5.468;2023-08-20T00:05:09;39.78;;;21.95;;
53666;SDS011;39568;51.026;5.468;2023-08-20T00:07:36;40.35;;;24.08;;
53666;SDS011;39568;51.026;5.468;2023-08-20T00:10:04;50.10;;;24.70;;
53666;SDS011;39568;51.026;5.468;2023-08-20T00:12:33;47.08;;;24.42;;
53666;SDS011;39568;51.026;5.468;2023-08-20T00:15:00;41.15;;;22.63;;
53666;SDS011;39568;51.026;5.468;2023-08-20T00:17:31;37.10;;;22.83;;
53666;SDS011;39568;51.026;5.468;2023-08-20T00:19:59;34.33;;;22.27;;
53666;SDS011;39568;51.026;5.468;2023-08-20T00:22:26;30.17;;;19.40;;
53666;SDS011;39568;51.026;5.468;2023-08-20T00:24:53;34.45;;;19.60;;
53666;SDS011;39568;51.026;5.468;2023-08-20T00:27:21;32.42;;;21.42;;
53666;SDS011;39568;51.026;5.468;2023-08-20T00:29:49;40.78;;;21.40;;
53666;SDS011;39568;51.026;5.468;2023-08-20T00:32:16;44.25;;;23.73;;
53666;SDS011;39568;51.026;5.468;2023-08-20T00:34:42;57.10;;;24.15;;
53666;SDS011;39568;51.026;5.468;2023-08-20T00:37:09;30.20;;;21.85;;
53666;SDS011;39568;51.026;5.468;2023-08-20T00:39:37;41.63;;;23.00;;
53666;SDS011;39568;51.026;5.468;2023-08-20T00:42:04;41.78;;;24.08;;
53666;SDS011;39568;51.026;5.468;2023-08-20T00:44:31;39.75;;;22.95;;
53666;SDS011;39568;51.026;5.468;2023-08-20T00:46:59;36.05;;;21.17;;
53666;SDS011;39568;51.026;5.468;2023-08-20T00:49:26;35.75;;;20.23;;
53666;SDS011;39568;51.026;5.468;2023-08-20T00:51:53;27.15;;;18.50;;
53666;SDS011;39568;51.026;5.468;2023-08-20T00:54:20;36.22;;;18.92;;
53666;SDS011;39568;51.026;5.468;2023-08-20T00:56:47;39.65;;;19.48;;
53666;SDS011;39568;51.026;5.468;2023-08-20T00:59:15;35.13;;;17.70;;
53666;SDS011;39568;51.026;5.468;2023-08-20T01:01:42;40.65;;;18.65;;
53666;SDS011;39568;51.026;5.468;2023-08-20T01:04:11;31.15;;;17.40;;
53666;SDS011;39568;51.026;5.468;2023-08-20T01:06:39;26.40;;;15.70;;
53666;SDS011;39568;51.026;5.468;2023-08-20T01:09:15;25.00;;;15.18;;
53666;SDS011;39568;51.026;5.468;2023-08-20T01:11:50;32.72;;;15.50;;
53666;SDS011;39568;51.026;5.468;2023-08-20T01:14:21;34.70;;;16.77;;
53666;SDS011;39568;51.026;5.468;2023-08-20T01:16:48;24.75;;;15.25;;
53666;SDS011;39568;51.026;5.468;2023-08-20T01:19:16;29.38;;;17.20;;
53666;SDS011;39568;51.026;5.468;2023-08-20T01:21:46;25.63;;;16.35;;
53666;SDS011;39568;51.026;5.468;2023-08-20T01:24:22;26.90;;;15.32;;
53666;SDS011;39568;51.026;5.468;2023-08-20T01:27:07;27.15;;;12.75;;
53666;SDS011;39568;51.026;5.468;2023-08-20T01:29:47;33.78;;;15.60;;
53666;SDS011;39568;51.026;5.468;2023-08-20T01:32:14;28.80;;;13.20;;
53666;SDS011;39568;51.026;5.468;2023-08-20T01:34:42;28.38;;;13.40;;
53666;SDS011;39568;51.026;5.468;2023-08-20T01:37:10;19.33;;;12.15;;
53666;SDS011;39568;51.026;5.468;2023-08-20T01:39:37;27.42;;;13.30;;
53666;SDS011;39568;51.026;5.468;2023-08-20T01:42:04;22.02;;;13.48;;
53666;SDS011;39568;51.026;5.468;2023-08-20T01:44:31;27.08;;;14.52;;
53666;SDS011;39568;51.026;5.468;2023-08-20T01:47:00;23.50;;;12.68;;
53666;SDS011;39568;51.026;5.468;2023-08-20T01:49:27;23.50;;;13.07;;
53666;SDS011;39568;51.026;5.468;2023-08-20T01:51:54;27.15;;;11.95;;
53666;SDS011;39568;51.026;5.468;2023-08-20T01:54:20;24.38;;;11.63;;
53666;SDS011;39568;51.026;5.468;2023-08-20T01:56:47;26.02;;;12.63;;
53666;SDS011;39568;51.026;5.468;2023-08-20T01:59:13;31.60;;;11.80;;
53666;SDS011;39568;51.026;5.468;2023-08-20T02:01:40;20.67;;;11.93;;
53666;SDS011;39568;51.026;5.468;2023-08-20T02:04:08;18.98;;;11.27;;
53666;SDS011;39568;51.026;5.468;2023-08-20T02:06:35;23.20;;;11.85;;
53666;SDS011;39568;51.026;5.468;2023-08-20T02:09:02;14.98;;;11.25;;
53666;SDS011;39568;51.026;5.468;2023-08-20T02:11:29;20.48;;;10.52;;
53666;SDS011;39568;51.026;5.468;2023-08-20T02:13:58;14.65;;;10.10;;
53666;SDS011;39568;51.026;5.468;2023-08-20T02:16:24;23.45;;;10.50;;
53666;SDS011;39568;51.026;5.468;2023-08-20T02:18:51;24.38;;;10.75;;
53666;SDS011;39568;51.026;5.468;2023-08-20T02:21:19;18.05;;;10.57;;
53666;SDS011;39568;51.026;5.468;2023-08-20T02:23:46;22.92;;;10.30;;
53666;SDS011;39568;51.026;5.468;2023-08-20T02:26:12;24.00;;;10.70;;
53666;SDS011;39568;51.026;5.468;2023-08-20T02:28:40;24.10;;;11.20;;
53666;SDS011;39568;51.026;5.468;2023-08-20T02:31:06;19.45;;;9.80;;
53666;SDS011;39568;51.026;5.468;2023-08-20T02:33:33;18.02;;;9.55;;
53666;SDS011;39568;51.026;5.468;2023-08-20T02:36:00;23.45;;;9.25;;
53666;SDS011;39568;51.026;5.468;2023-08-20T02:38:29;24.70;;;8.88;;
53666;SDS011;39568;51.026;5.468;2023-08-20T02:40:56;18.52;;;8.65;;
53666;SDS011;39568;51.026;5.468;2023-08-20T02:43:23;15.38;;;7.10;;
53666;SDS011;39568;51.026;5.468;2023-08-20T02:45:49;15.05;;;7.68;;
53666;SDS011;39568;51.026;5.468;2023-08-20T02:48:17;15.52;;;8.23;;
53666;SDS011;39568;51.026;5.468;2023-08-20T02:50:44;23.85;;;9.68;;
53666;SDS011;39568;51.026;5.468;2023-08-20T02:53:10;21.27;;;6.85;;
53666;SDS011;39568;51.026;5.468;2023-08-20T02:55:38;17.30;;;7.25;;
53666;SDS011;39568;51.026;5.468;2023-08-20T02:58:05;25.85;;;8.90;;
53666;SDS011;39568;51.026;5.468;2023-08-20T03:00:33;18.65;;;7.15;;
53666;SDS011;39568;51.026;5.468;2023-08-20T03:03:00;21.73;;;7.85;;
53666;SDS011;39568;51.026;5.468;2023-08-20T03:05:29;18.95;;;7.45;;
53666;SDS011;39568;51.026;5.468;2023-08-20T03:07:55;23.10;;;7.70;;
53666;SDS011;39568;51.026;5.468;2023-08-20T03:10:22;22.65;;;8.70;;
53666;SDS011;39568;51.026;5.468;2023-08-20T03:12:50;12.32;;;6.88;;
53666;SDS011;39568;51.026;5.468;2023-08-20T03:15:17;9.63;;;5.60;;
53666;SDS011;39568;51.026;5.468;2023-08-20T03:17:43;22.05;;;6.70;;
53666;SDS011;39568;51.026;5.468;2023-08-20T03:20:10;13.52;;;6.05;;
53666;SDS011;39568;51.026;5.468;2023-08-20T03:22:37;12.43;;;6.03;;
53666;SDS011;39568;51.026;5.468;2023-08-20T03:25:05;10.93;;;5.50;;
53666;SDS011;39568;51.026;5.468;2023-08-20T03:27:32;17.75;;;5.78;;
53666;SDS011;39568;51.026;5.468;2023-08-20T03:30:00;12.75;;;5.90;;
53666;SDS011;39568;51.026;5.468;2023-08-20T03:32:27;13.52;;;6.15;;
53666;SDS011;39568;51.026;5.468;2023-08-20T03:34:53;20.55;;;5.93;;
53666;SDS011;39568;51.026;5.468;2023-08-20T03:37:21;22.38;;;6.68;;
53666;SDS011;39568;51.026;5.468;2023-08-20T03:39:48;19.77;;;6.47;;
53666;SDS011;39568;51.026;5.468;2023-08-20T03:42:14;12.38;;;6.30;;
53666;SDS011;39568;51.026;5.468;2023-08-20T03:44:41;10.65;;;6.72;;
53666;SDS011;39568;51.026;5.468;2023-08-20T03:47:09;14.60;;;7.32;;
53666;SDS011;39568;51.026;5.468;2023-08-20T03:49:36;22.00;;;7.78;;
53666;SDS011;39568;51.026;5.468;2023-08-20T03:52:03;16.15;;;6.75;;
53666;SDS011;39568;51.026;5.468;2023-08-20T03:54:32;19.42;;;6.53;;
53666;SDS011;39568;51.026;5.468;2023-08-20T03:56:59;11.23;;;5.20;;
53666;SDS011;39568;51.026;5.468;2023-08-20T03:59:26;10.93;;;5.57;;
53666;SDS011;39568;51.026;5.468;2023-08-20T04:01:52;12.77;;;5.75;;
53666;SDS011;39568;51.026;5.468;2023-08-20T04:04:20;15.88;;;5.35;;
53666;SDS011;39568;51.026;5.468;2023-08-20T04:06:47;9.32;;;6.03;;
53666;SDS011;39568;51.026;5.468;2023-08-20T04:09:14;12.40;;;5.13;;
53666;SDS011;39568;51.026;5.468;2023-08-20T04:11:41;9.25;;;5.28;;
53666;SDS011;39568;51.026;5.468;2023-08-20T04:14:08;11.23;;;5.07;;
53666;SDS011;39568;51.026;5.468;2023-08-20T04:16:35;8.95;;;5.30;;
53666;SDS011;39568;51.026;5.468;2023-08-20T04:19:01;17.55;;;6.53;;
53666;SDS011;39568;51.026;5.468;2023-08-20T04:21:30;19.27;;;6.55;;
53666;SDS011;39568;51.026;5.468;2023-08-20T04:23:56;18.38;;;6.70;;
53666;SDS011;39568;51.026;5.468;2023-08-20T04:26:23;14.00;;;5.55;;
53666;SDS011;39568;51.026;5.468;2023-08-20T04:28:50;10.85;;;5.95;;
53666;SDS011;39568;51.026;5.468;2023-08-20T04:31:16;23.63;;;6.82;;
53666;SDS011;39568;51.026;5.468;2023-08-20T04:33:45;16.73;;;7.03;;
53666;SDS011;39568;51.026;5.468;2023-08-20T04:36:11;14.43;;;6.65;;
53666;SDS011;39568;51.026;5.468;2023-08-20T04:38:39;10.77;;;5.60;;
53666;SDS011;39568;51.026;5.468;2023-08-20T04:41:06;12.68;;;5.88;;
53666;SDS011;39568;51.026;5.468;2023-08-20T04:43:33;17.92;;;7.03;;
53666;SDS011;39568;51.026;5.468;2023-08-20T04:45:59;18.48;;;6.63;;
53666;SDS011;39568;51.026;5.468;2023-08-20T04:48:26;17.88;;;7.13;;
53666;SDS011;39568;51.026;5.468;2023-08-20T04:50:53;13.93;;;5.82;;
53666;SDS011;39568;51.026;5.468;2023-08-20T04:53:19;27.35;;;6.15;;
53666;SDS011;39568;51.026;5.468;2023-08-20T04:55:47;18.42;;;6.38;;
53666;SDS011;39568;51.026;5.468;2023-08-20T04:58:14;15.95;;;5.88;;
53666;SDS011;39568;51.026;5.468;2023-08-20T05:00:41;15.43;;;5.50;;
53666;SDS011;39568;51.026;5.468;2023-08-20T05:03:08;9.23;;;5.60;;
53666;SDS011;39568;51.026;5.468;2023-08-20T05:05:35;15.43;;;6.15;;
53666;SDS011;39568;51.026;5.468;2023-08-20T05:08:02;11.65;;;5.20;;
53666;SDS011;39568;51.026;5.468;2023-08-20T05:10:29;13.07;;;5.85;;
53666;SDS011;39568;51.026;5.468;2023-08-20T05:12:57;31.17;;;15.93;;
53666;SDS011;39568;51.026;5.468;2023-08-20T05:15:24;49.80;;;22.42;;
53666;SDS011;39568;51.026;5.468;2023-08-20T05:17:51;32.70;;;12.57;;
53666;SDS011;39568;51.026;5.468;2023-08-20T05:20:17;31.17;;;11.85;;
53666;SDS011;39568;51.026;5.468;2023-08-20T05:22:44;18.45;;;8.70;;
53666;SDS011;39568;51.026;5.468;2023-08-20T05:25:11;16.13;;;8.88;;
53666;SDS011;39568;51.026;5.468;2023-08-20T05:27:37;19.60;;;8.52;;
53666;SDS011;39568;51.026;5.468;2023-08-20T05:30:06;26.67;;;9.40;;
53666;SDS011;39568;51.026;5.468;2023-08-20T05:32:34;17.58;;;10.10;;
53666;SDS011;39568;51.026;5.468;2023-08-20T05:35:01;9.73;;;5.55;;
53666;SDS011;39568;51.026;5.468;2023-08-20T05:37:29;15.90;;;6.28;;
53666;SDS011;39568;51.026;5.468;2023-08-20T05:39:57;14.93;;;5.95;;
53666;SDS011;39568;51.026;5.468;2023-08-20T05:42:24;15.25;;;4.70;;
53666;SDS011;39568;51.026;5.468;2023-08-20T05:44:50;17.98;;;5.68;;
53666;SDS011;39568;51.026;5.468;2023-08-20T05:47:19;20.58;;;5.32;;
53666;SDS011;39568;51.026;5.468;2023-08-20T05:49:46;14.32;;;6.22;;
53666;SDS011;39568;51.026;5.468;2023-08-20T05:52:12;18.55;;;5.90;;
53666;SDS011;39568;51.026;5.468;2023-08-20T05:54:39;19.67;;;5.35;;
53666;SDS011;39568;51.026;5.468;2023-08-20T05:57:06;19.33;;;5.32;;
53666;SDS011;39568;51.026;5.468;2023-08-20T05:59:33;16.35;;;5.38;;
53666;SDS011;39568;51.026;5.468;2023-08-20T06:02:00;16.55;;;5.93;;
53666;SDS011;39568;51.026;5.468;2023-08-20T06:04:29;12.20;;;4.72;;
53666;SDS011;39568;51.026;5.468;2023-08-20T06:06:56;11.55;;;4.15;;
53666;SDS011;39568;51.026;5.468;2023-08-20T06:09:22;14.90;;;4.68;;
53666;SDS011;39568;51.026;5.468;2023-08-20T06:11:49;12.23;;;4.13;;
53666;SDS011;39568;51.026;5.468;2023-08-20T06:14:16;17.73;;;4.75;;
53666;SDS011;39568;51.026;5.468;2023-08-20T06:16:43;18.92;;;4.32;;
53666;SDS011;39568;51.026;5.468;2023-08-20T06:19:10;12.70;;;3.63;;
53666;SDS011;39568;51.026;5.468;2023-08-20T06:21:38;14.85;;;4.93;;
53666;SDS011;39568;51.026;5.468;2023-08-20T06:24:05;17.13;;;4.15;;
53666;SDS011;39568;51.026;5.468;2023-08-20T06:26:32;10.05;;;3.38;;
53666;SDS011;39568;51.026;5.468;2023-08-20T06:28:59;8.55;;;3.47;;
53666;SDS011;39568;51.026;5.468;2023-08-20T06:31:25;10.20;;;2.70;;
53666;SDS011;39568;51.026;5.468;2023-08-20T06:33:52;7.75;;;3.22;;
53666;SDS011;39568;51.026;5.468;2023-08-20T06:36:19;17.98;;;4.65;;
53666;SDS011;39568;51.026;5.468;2023-08-20T06:38:47;12.50;;;3.50;;
53666;SDS011;39568;51.026;5.468;2023-08-20T06:41:13;15.35;;;4.05;;
53666;SDS011;39568;51.026;5.468;2023-08-20T06:43:40;14.65;;;4.75;;
53666;SDS011;39568;51.026;5.468;2023-08-20T06:46:07;9.93;;;3.28;;
53666;SDS011;39568;51.026;5.468;2023-08-20T06:48:34;15.25;;;4.13;;
53666;SDS011;39568;51.026;5.468;2023-08-20T06:51:07;18.50;;;3.80;;
53666;SDS011;39568;51.026;5.468;2023-08-20T06:53:34;11.02;;;3.65;;
53666;SDS011;39568;51.026;5.468;2023-08-20T06:56:02;8.32;;;3.58;;
53666;SDS011;39568;51.026;5.468;2023-08-20T06:58:29;14.75;;;3.40;;
53666;SDS011;39568;51.026;5.468;2023-08-20T07:00:56;8.43;;;3.35;;
53666;SDS011;39568;51.026;5.468;2023-08-20T07:03:32;8.98;;;3.17;;
53666;SDS011;39568;51.026;5.468;2023-08-20T07:05:58;18.25;;;3.58;;
53666;SDS011;39568;51.026;5.468;2023-08-20T07:08:25;13.02;;;2.85;;
53666;SDS011;39568;51.026;5.468;2023-08-20T07:10:52;6.80;;;3.47;;
53666;SDS011;39568;51.026;5.468;2023-08-20T07:13:20;10.43;;;3.30;;
53666;SDS011;39568;51.026;5.468;2023-08-20T07:15:47;12.40;;;2.67;;
53666;SDS011;39568;51.026;5.468;2023-08-20T07:18:13;9.52;;;3.25;;
53666;SDS011;39568;51.026;5.468;2023-08-20T07:20:41;13.55;;;4.00;;
53666;SDS011;39568;51.026;5.468;2023-08-20T07:23:08;13.27;;;3.75;;
53666;SDS011;39568;51.026;5.468;2023-08-20T07:25:35;9.90;;;3.28;;
53666;SDS011;39568;51.026;5.468;2023-08-20T07:28:02;12.95;;;3.50;;
53666;SDS011;39568;51.026;5.468;2023-08-20T07:30:31;11.23;;;3.33;;
53666;SDS011;39568;51.026;5.468;2023-08-20T07:32:57;8.25;;;3.10;;
53666;SDS011;39568;51.026;5.468;2023-08-20T07:35:24;8.27;;;3.13;;
53666;SDS011;39568;51.026;5.468;2023-08-20T07:37:51;16.80;;;3.97;;
53666;SDS011;39568;51.026;5.468;2023-08-20T07:40:18;8.57;;;3.00;;
53666;SDS011;39568;51.026;5.468;2023-08-20T07:42:45;10.50;;;3.03;;
53666;SDS011;39568;51.026;5.468;2023-08-20T07:45:11;11.27;;;3.35;;
53666;SDS011;39568;51.026;5.468;2023-08-20T07:47:40;9.35;;;3.05;;
53666;SDS011;39568;51.026;5.468;2023-08-20T07:50:07;7.95;;;3.05;;
53666;SDS011;39568;51.026;5.468;2023-08-20T07:52:34;14.18;;;2.63;;
53666;SDS011;39568;51.026;5.468;2023-08-20T07:55:00;15.48;;;3.80;;
53666;SDS011;39568;51.026;5.468;2023-08-20T07:57:27;10.27;;;3.45;;
53666;SDS011;39568;51.026;5.468;2023-08-20T07:59:54;12.88;;;3.03;;
53666;SDS011;39568;51.026;5.468;2023-08-20T08:02:21;11.07;;;3.13;;
53666;SDS011;39568;51.026;5.468;2023-08-20T08:04:49;11.98;;;3.10;;
53666;SDS011;39568;51.026;5.468;2023-08-20T08:07:15;7.15;;;3.75;;
53666;SDS011;39568;51.026;5.468;2023-08-20T08:09:42;10.57;;;3.60;;
53666;SDS011;39568;51.026;5.468;2023-08-20T08:12:10;15.70;;;3.67;;
53666;SDS011;39568;51.026;5.468;2023-08-20T08:14:37;27.98;;;4.45;;
53666;SDS011;39568;51.026;5.468;2023-08-20T08:17:03;10.57;;;3.15;;
53666;SDS011;39568;51.026;5.468;2023-08-20T08:19:30;15.07;;;5.25;;
53666;SDS011;39568;51.026;5.468;2023-08-20T08:21:58;5.85;;;3.78;;
53666;SDS011;39568;51.026;5.468;2023-08-20T08:24:25;17.67;;;4.25;;
53666;SDS011;39568;51.026;5.468;2023-08-20T08:26:52;17.30;;;3.97;;
53666;SDS011;39568;51.026;5.468;2023-08-20T08:29:18;7.18;;;3.10;;
53666;SDS011;39568;51.026;5.468;2023-08-20T08:31:45;11.88;;;3.88;;
53666;SDS011;39568;51.026;5.468;2023-08-20T08:34:12;14.43;;;5.32;;
53666;SDS011;39568;51.026;5.468;2023-08-20T08:36:39;6.45;;;2.85;;
53666;SDS011;39568;51.026;5.468;2023-08-20T08:39:07;10.13;;;3.45;;
53666;SDS011;39568;51.026;5.468;2023-08-20T08:41:34;9.10;;;3.38;;
53666;SDS011;39568;51.026;5.468;2023-08-20T08:44:05;12.88;;;4.10;;
53666;SDS011;39568;51.026;5.468;2023-08-20T08:46:34;11.45;;;4.13;;
53666;SDS011;39568;51.026;5.468;2023-08-20T08:49:02;8.05;;;4.03;;
53666;SDS011;39568;51.026;5.468;2023-08-20T08:51:30;22.70;;;5.05;;
53666;SDS011;39568;51.026;5.468;2023-08-20T08:53:57;13.60;;;3.90;;
53666;SDS011;39568;51.026;5.468;2023-08-20T08:56:26;11.30;;;3.65;;
53666;SDS011;39568;51.026;5.468;2023-08-20T08:58:53;8.73;;;3.88;;
53666;SDS011;39568;51.026;5.468;2023-08-20T09:01:20;12.05;;;4.38;;
53666;SDS011;39568;51.026;5.468;2023-08-20T09:03:47;16.73;;;4.25;;
53666;SDS011;39568;51.026;5.468;2023-08-20T09:06:14;7.53;;;3.70;;
53666;SDS011;39568;51.026;5.468;2023-08-20T09:08:40;10.10;;;3.42;;
53666;SDS011;39568;51.026;5.468;2023-08-20T09:11:07;10.63;;;3.50;;
53666;SDS011;39568;51.026;5.468;2023-08-20T09:13:35;13.95;;;3.20;;
53666;SDS011;39568;51.026;5.468;2023-08-20T09:16:04;12.90;;;3.55;;
53666;SDS011;39568;51.026;5.468;2023-08-20T09:18:31;8.50;;;3.45;;
53666;SDS011;39568;51.026;5.468;2023-08-20T09:20:59;8.23;;;2.60;;
53666;SDS011;39568;51.026;5.468;2023-08-20T09:23:28;12.20;;;3.30;;
53666;SDS011;39568;51.026;5.468;2023-08-20T09:25:55;11.77;;;2.77;;
53666;SDS011;39568;51.026;5.468;2023-08-20T09:28:22;9.20;;;2.58;;
53666;SDS011;39568;51.026;5.468;2023-08-20T09:30:57;9.13;;;2.75;;
53666;SDS011;39568;51.026;5.468;2023-08-20T09:33:26;12.00;;;3.10;;
53666;SDS011;39568;51.026;5.468;2023-08-20T09:35:53;7.60;;;2.25;;
53666;SDS011;39568;51.026;5.468;2023-08-20T09:38:21;7.45;;;2.85;;
53666;SDS011;39568;51.026;5.468;2023-08-20T09:40:49;8.38;;;2.33;;
53666;SDS011;39568;51.026;5.468;2023-08-20T09:43:17;8.52;;;1.92;;
53666;SDS011;39568;51.026;5.468;2023-08-20T09:45:45;7.43;;;2.22;;
53666;SDS011;39568;51.026;5.468;2023-08-20T09:48:14;9.25;;;2.60;;
53666;SDS011;39568;51.026;5.468;2023-08-20T09:50:46;13.38;;;2.75;;
53666;SDS011;39568;51.026;5.468;2023-08-20T09:53:17;8.23;;;2.53;;
53666;SDS011;39568;51.026;5.468;2023-08-20T09:55:49;9.13;;;2.30;;
53666;SDS011;39568;51.026;5.468;2023-08-20T09:58:17;7.88;;;2.78;;
53666;SDS011;39568;51.026;5.468;2023-08-20T10:00:46;9.48;;;2.60;;
53666;SDS011;39568;51.026;5.468;2023-08-20T10:03:16;7.53;;;2.20;;
53666;SDS011;39568;51.026;5.468;2023-08-20T10:05:44;11.00;;;2.33;;
53666;SDS011;39568;51.026;5.468;2023-08-20T10:08:13;6.80;;;1.85;;
53666;SDS011;39568;51.026;5.468;2023-08-20T10:10:41;6.63;;;1.92;;
53666;SDS011;39568;51.026;5.468;2023-08-20T10:13:07;5.47;;;2.47;;
53666;SDS011;39568;51.026;5.468;2023-08-20T10:15:34;11.02;;;2.50;;
53666;SDS011;39568;51.026;5.468;2023-08-20T10:18:03;5.45;;;1.98;;
53666;SDS011;39568;51.026;5.468;2023-08-20T10:20:32;6.53;;;2.15;;
53666;SDS011;39568;51.026;5.468;2023-08-20T10:23:00;8.60;;;2.05;;
53666;SDS011;39568;51.026;5.468;2023-08-20T10:25:28;5.85;;;2.38;;
53666;SDS011;39568;51.026;5.468;2023-08-20T10:28:10;4.05;;;2.20;;
53666;SDS011;39568;51.026;5.468;2023-08-20T10:30:38;8.35;;;2.17;;
53666;SDS011;39568;51.026;5.468;2023-08-20T10:33:05;9.40;;;2.53;;
53666;SDS011;39568;51.026;5.468;2023-08-20T10:35:47;6.50;;;2.35;;
53666;SDS011;39568;51.026;5.468;2023-08-20T10:38:15;3.60;;;1.77;;
53666;SDS011;39568;51.026;5.468;2023-08-20T10:40:46;9.15;;;3.92;;
53666;SDS011;39568;51.026;5.468;2023-08-20T10:43:23;4.72;;;1.98;;
53666;SDS011;39568;51.026;5.468;2023-08-20T10:46:01;7.82;;;2.45;;
53666;SDS011;39568;51.026;5.468;2023-08-20T10:48:29;4.57;;;1.90;;
53666;SDS011;39568;51.026;5.468;2023-08-20T10:50:58;4.78;;;1.77;;
53666;SDS011;39568;51.026;5.468;2023-08-20T10:53:25;5.00;;;2.10;;
53666;SDS011;39568;51.026;5.468;2023-08-20T10:55:51;8.85;;;2.72;;
53666;SDS011;39568;51.026;5.468;2023-08-20T10:58:19;4.38;;;1.88;;
53666;SDS011;39568;51.026;5.468;2023-08-20T11:03:48;5.90;;;1.85;;
53666;SDS011;39568;51.026;5.468;2023-08-20T11:06:18;4.43;;;2.13;;
53666;SDS011;39568;51.026;5.468;2023-08-20T11:08:45;3.85;;;1.90;;
53666;SDS011;39568;51.026;5.468;2023-08-20T11:11:12;5.43;;;1.70;;
53666;SDS011;39568;51.026;5.468;2023-08-20T11:13:39;5.18;;;2.00;;
53666;SDS011;39568;51.026;5.468;2023-08-20T11:16:07;3.53;;;1.80;;
53666;SDS011;39568;51.026;5.468;2023-08-20T11:18:34;3.17;;;1.60;;
53666;SDS011;39568;51.026;5.468;2023-08-20T11:21:02;8.43;;;2.55;;
53666;SDS011;39568;51.026;5.468;2023-08-20T11:23:30;3.80;;;1.85;;
53666;SDS011;39568;51.026;5.468;2023-08-20T11:25:57;2.97;;;1.50;;
53666;SDS011;39568;51.026;5.468;2023-08-20T11:28:27;7.43;;;1.50;;
53666;SDS011;39568;51.026;5.468;2023-08-20T11:30:54;4.75;;;1.55;;
53666;SDS011;39568;51.026;5.468;2023-08-20T11:33:22;4.07;;;2.15;;
53666;SDS011;39568;51.026;5.468;2023-08-20T11:35:51;8.40;;;1.73;;
53666;SDS011;39568;51.026;5.468;2023-08-20T11:38:18;8.32;;;1.50;;
53666;SDS011;39568;51.026;5.468;2023-08-20T11:40:49;3.65;;;1.42;;
53666;SDS011;39568;51.026;5.468;2023-08-20T11:43:16;5.85;;;1.80;;
53666;SDS011;39568;51.026;5.468;2023-08-20T11:45:46;5.18;;;1.80;;
53666;SDS011;39568;51.026;5.468;2023-08-20T11:48:14;5.50;;;1.40;;
53666;SDS011;39568;51.026;5.468;2023-08-20T11:50:41;3.60;;;1.35;;
53666;SDS011;39568;51.026;5.468;2023-08-20T11:53:08;4.57;;;1.95;;
53666;SDS011;39568;51.026;5.468;2023-08-20T11:55:35;3.35;;;1.60;;
53666;SDS011;39568;51.026;5.468;2023-08-20T11:58:06;4.03;;;1.60;;
53666;SDS011;39568;51.026;5.468;2023-08-20T12:00:36;4.30;;;1.65;;
53666;SDS011;39568;51.026;5.468;2023-08-20T12:03:02;3.85;;;1.90;;
53666;SDS011;39568;51.026;5.468;2023-08-20T12:05:30;8.57;;;1.90;;
53666;SDS011;39568;51.026;5.468;2023-08-20T12:07:57;6.15;;;1.70;;
53666;SDS011;39568;51.026;5.468;2023-08-20T12:10:25;2.03;;;1.30;;
53666;SDS011;39568;51.026;5.468;2023-08-20T12:12:52;5.35;;;1.92;;
53666;SDS011;39568;51.026;5.468;2023-08-20T12:15:22;5.97;;;1.70;;
53666;SDS011;39568;51.026;5.468;2023-08-20T12:17:59;6.43;;;1.77;;
53666;SDS011;39568;51.026;5.468;2023-08-20T12:20:29;1.40;;;1.30;;
53666;SDS011;39568;51.026;5.468;2023-08-20T12:23:01;5.63;;;1.80;;
53666;SDS011;39568;51.026;5.468;2023-08-20T12:25:30;2.63;;;1.67;;
53666;SDS011;39568;51.026;5.468;2023-08-20T12:27:57;1.80;;;0.90;;
53666;SDS011;39568;51.026;5.468;2023-08-20T12:30:25;7.85;;;1.55;;
53666;SDS011;39568;51.026;5.468;2023-08-20T12:32:52;6.68;;;1.70;;
53666;SDS011;39568;51.026;5.468;2023-08-20T12:35:19;2.28;;;1.58;;
53666;SDS011;39568;51.026;5.468;2023-08-20T12:37:46;5.30;;;1.58;;
53666;SDS011;39568;51.026;5.468;2023-08-20T12:40:12;3.45;;;1.83;;
53666;SDS011;39568;51.026;5.468;2023-08-20T12:42:39;2.63;;;1.40;;
53666;SDS011;39568;51.026;5.468;2023-08-20T12:45:06;6.07;;;1.42;;
53666;SDS011;39568;51.026;5.468;2023-08-20T12:47:34;2.63;;;1.23;;
53666;SDS011;39568;51.026;5.468;2023-08-20T12:50:03;3.30;;;1.42;;
53666;SDS011;39568;51.026;5.468;2023-08-20T12:52:31;3.42;;;1.85;;
53666;SDS011;39568;51.026;5.468;2023-08-20T12:54:58;4.15;;;1.60;;
53666;SDS011;39568;51.026;5.468;2023-08-20T12:57:25;4.28;;;1.85;;
53666;SDS011;39568;51.026;5.468;2023-08-20T12:59:51;4.43;;;1.30;;
53666;SDS011;39568;51.026;5.468;2023-08-20T13:02:18;4.05;;;1.50;;
53666;SDS011;39568;51.026;5.468;2023-08-20T13:04:48;1.85;;;1.17;;
53666;SDS011;39568;51.026;5.468;2023-08-20T13:07:15;3.17;;;1.67;;
53666;SDS011;39568;51.026;5.468;2023-08-20T13:09:42;3.05;;;1.38;;
53666;SDS011;39568;51.026;5.468;2023-08-20T13:12:10;3.47;;;1.25;;
53666;SDS011;39568;51.026;5.468;2023-08-20T13:14:38;3.22;;;1.40;;
53666;SDS011;39568;51.026;5.468;2023-08-20T13:17:07;1.50;;;1.20;;
53666;SDS011;39568;51.026;5.468;2023-08-20T13:22:03;4.80;;;1.40;;
53666;SDS011;39568;51.026;5.468;2023-08-20T13:24:30;3.30;;;1.17;;
53666;SDS011;39568;51.026;5.468;2023-08-20T13:26:56;4.13;;;1.67;;
53666;SDS011;39568;51.026;5.468;2023-08-20T13:29:23;8.85;;;1.70;;
53666;SDS011;39568;51.026;5.468;2023-08-20T13:31:49;4.13;;;1.45;;
53666;SDS011;39568;51.026;5.468;2023-08-20T13:34:16;2.17;;;1.08;;
53666;SDS011;39568;51.026;5.468;2023-08-20T13:36:43;3.65;;;1.25;;
53666;SDS011;39568;51.026;5.468;2023-08-20T13:39:11;2.20;;;1.20;;
53666;SDS011;39568;51.026;5.468;2023-08-20T13:41:38;2.25;;;1.10;;
53666;SDS011;39568;51.026;5.468;2023-08-20T13:44:05;1.40;;;1.02;;
53666;SDS011;39568;51.026;5.468;2023-08-20T13:46:33;3.28;;;1.00;;
53666;SDS011;39568;51.026;5.468;2023-08-20T13:48:59;3.58;;;1.30;;
53666;SDS011;39568;51.026;5.468;2023-08-20T13:51:26;1.58;;;0.95;;
53666;SDS011;39568;51.026;5.468;2023-08-20T13:53:52;2.15;;;1.17;;
53666;SDS011;39568;51.026;5.468;2023-08-20T13:56:20;2.00;;;1.20;;
53666;SDS011;39568;51.026;5.468;2023-08-20T13:58:47;4.80;;;0.88;;
53666;SDS011;39568;51.026;5.468;2023-08-20T14:01:14;6.90;;;1.25;;
53666;SDS011;39568;51.026;5.468;2023-08-20T14:03:40;5.32;;;1.30;;
53666;SDS011;39568;51.026;5.468;2023-08-20T14:06:07;3.97;;;1.73;;
53666;SDS011;39568;51.026;5.468;2023-08-20T14:08:34;2.10;;;0.90;;
53666;SDS011;39568;51.026;5.468;2023-08-20T14:11:00;2.10;;;1.20;;
53666;SDS011;39568;51.026;5.468;2023-08-20T14:13:29;5.20;;;1.27;;
53666;SDS011;39568;51.026;5.468;2023-08-20T14:15:57;3.13;;;1.02;;
53666;SDS011;39568;51.026;5.468;2023-08-20T14:18:25;2.60;;;1.27;;
53666;SDS011;39568;51.026;5.468;2023-08-20T14:20:52;4.70;;;1.30;;
53666;SDS011;39568;51.026;5.468;2023-08-20T14:23:18;6.55;;;1.27;;
53666;SDS011;39568;51.026;5.468;2023-08-20T14:25:45;2.72;;;1.27;;
53666;SDS011;39568;51.026;5.468;2023-08-20T14:28:12;5.32;;;1.10;;
53666;SDS011;39568;51.026;5.468;2023-08-20T14:30:40;4.85;;;1.05;;
53666;SDS011;39568;51.026;5.468;2023-08-20T14:33:06;3.38;;;1.02;;
53666;SDS011;39568;51.026;5.468;2023-08-20T14:35:33;3.00;;;1.15;;
53666;SDS011;39568;51.026;5.468;2023-08-20T14:38:00;4.18;;;1.13;;
53666;SDS011;39568;51.026;5.468;2023-08-20T14:40:27;2.08;;;0.93;;
53666;SDS011;39568;51.026;5.468;2023-08-20T14:42:53;2.25;;;1.05;;
53666;SDS011;39568;51.026;5.468;2023-08-20T14:45:20;1.85;;;0.80;;